High Roller — WDD2839 — position and weather

sailwx.info

Track history (hours):
 
Tides and Currents Weather Stations Pressure Air Temp Water Temp Dewpoint Dewpoint Depression Visibility Wind Speed Wind Dir Waves Ship Positions

High Roller

Owner: HAYS TUG & LAUNCH SERVICE INC, WALLINGFORD, PA. More information available from US FCC via Universal Licensing System and Coast Guard Vessel Documentation Center.

Last reported at 2018-Apr-26 15:16 UTC. Time now 2018-Apr-26 23:14 UTC.
Position N 39°50' W 075°23'.

Length 33 m.

Type: Tug. MMSI: 367120550.

Date/timePositionNaut miles runAvg speedWind from/ knotsBaromVisibWave heightAir tempDewpointWater temp
2018-Apr-26 15:16N 39°50' W 075°23'0 0.2
2018-Apr-26 15:00N 39°50' W 075°23'2 3.8
2018-Apr-26 14:30N 39°48' W 075°25'4 7.6
2018-Apr-26 14:00N 39°46' W 075°29'4 7.6
2018-Apr-26 13:30N 39°42' W 075°31'4 7.5
2018-Apr-26 13:00N 39°39' W 075°33'3 6.2
2018-Apr-26 12:30N 39°36' W 075°34'3 5.9
2018-Apr-26 12:00N 39°34' W 075°33'1 3.0
2018-Apr-26 11:30N 39°34' W 075°31'1 2.9
2018-Apr-26 11:00N 39°34' W 075°29'0 0.0
2018-Apr-26 10:29N 39°34' W 075°29'0 0.9
2018-Apr-26 10:00N 39°34' W 075°30'3 5.1
2018-Apr-26 09:30N 39°34' W 075°33'5 9.4
2018-Apr-26 09:00N 39°38' W 075°34'611.4
2018-Apr-26 08:30N 39°43' W 075°30'611.5
2018-Apr-26 08:00N 39°48' W 075°26'3 5.6
2018-Apr-26 07:30N 39°50' W 075°23'0 0.0
2018-Apr-25 15:55N 39°50' W 075°23'0 0.1
2018-Apr-25 15:30N 39°50' W 075°23'2 3.7
2018-Apr-25 15:00N 39°51' W 075°21'3 5.8
2018-Apr-25 14:30N 39°51' W 075°17'2 3.4
2018-Apr-25 14:00N 39°51' W 075°15'0 0.0
2018-Apr-25 13:30N 39°51' W 075°15'0 0.2
2018-Apr-25 13:00N 39°51' W 075°15'510.1
2018-Apr-25 12:30N 39°50' W 075°21'1 0.1
2018-Apr-24 18:14N 39°50' W 075°23'0 0.0
2018-Apr-24 16:58N 39°50' W 075°23'0 0.0
2018-Apr-24 16:30N 39°50' W 075°23'0 0.0
2018-Apr-24 16:00N 39°50' W 075°23'0 0.0
2018-Apr-24 15:30N 39°50' W 075°23'0 0.0
2018-Apr-24 15:00N 39°50' W 075°23'0 0.0
2018-Apr-24 14:30N 39°50' W 075°23'0 0.0
2018-Apr-24 14:00N 39°50' W 075°23'0 0.0
2018-Apr-24 13:30N 39°50' W 075°23'0 0.0
2018-Apr-24 13:00N 39°50' W 075°23'0 0.0
2018-Apr-24 12:30N 39°50' W 075°23'0 0.0
2018-Apr-24 11:59N 39°50' W 075°23'1 2.5
2018-Apr-24 11:31N 39°49' W 075°24'1 0.9
2018-Apr-24 10:33N 39°48' W 075°25'0 0.2
2018-Apr-24 10:30N 39°48' W 075°25'1 2.3
2018-Apr-24 10:00N 39°48' W 075°26'2 3.3
2018-Apr-24 09:30N 39°49' W 075°25'2 3.1
2018-Apr-24 09:00N 39°50' W 075°23'0 0.0
2018-Apr-24 08:30N 39°50' W 075°23'0 0.0
2018-Apr-24 08:00N 39°50' W 075°23'0 0.0
2018-Apr-24 07:30N 39°50' W 075°23'0 0.0
2018-Apr-24 07:00N 39°50' W 075°23'0 0.0
2018-Apr-24 06:30N 39°50' W 075°23'0 0.0
2018-Apr-24 06:00N 39°50' W 075°23'0 0.0
2018-Apr-24 05:30N 39°50' W 075°23'0 0.0
2018-Apr-24 04:17N 39°50' W 075°23'0 0.0
2018-Apr-24 03:56N 39°50' W 075°23'0 0.0
2018-Apr-24 03:30N 39°50' W 075°23'0 0.0
2018-Apr-24 03:00N 39°50' W 075°23'0 0.0
2018-Apr-24 02:30N 39°50' W 075°23'1 2.3
2018-Apr-24 02:00N 39°50' W 075°22'0 0.3
2018-Apr-24 01:30N 39°50' W 075°22'1 1.9
2018-Apr-24 01:00N 39°50' W 075°23'0 0.3
2018-Apr-24 00:30N 39°50' W 075°23'0 0.0
2018-Apr-24 00:00N 39°50' W 075°23'0 0.0
2018-Apr-23 23:30N 39°50' W 075°23'0 0.0
2018-Apr-23 23:00N 39°50' W 075°23'0 0.0
2018-Apr-23 22:30N 39°50' W 075°23'0 0.0
2018-Apr-23 22:00N 39°50' W 075°23'0 0.0
2018-Apr-23 21:30N 39°50' W 075°23'0 0.0
2018-Apr-23 21:00N 39°50' W 075°23'0 0.0
2018-Apr-23 20:30N 39°50' W 075°23'4 8.3
2018-Apr-23 20:00N 39°51' W 075°18'510.1
2018-Apr-23 19:30N 39°53' W 075°12'1 1.4
2018-Apr-23 19:01N 39°54' W 075°12'0 0.2
2018-Apr-23 18:31N 39°53' W 075°12'1 1.9
2018-Apr-23 18:00N 39°53' W 075°12'2 4.9
2018-Apr-23 17:30N 39°51' W 075°15'2 4.8
2018-Apr-23 17:00N 39°51' W 075°18'2 3.9
2018-Apr-23 16:30N 39°51' W 075°20'1 1.9
2018-Apr-23 16:00N 39°50' W 075°21'  
Track history (hours):
 
Tides and Currents Weather Stations Pressure Air Temp Water Temp Dewpoint Dewpoint Depression Visibility Wind Speed Wind Dir Waves Ship Positions

High Roller

Owner: HAYS TUG & LAUNCH SERVICE INC, WALLINGFORD, PA. More information available from US FCC via Universal Licensing System and Coast Guard Vessel Documentation Center.

Last reported at 2018-Apr-26 15:16 UTC. Time now 2018-Apr-26 23:14 UTC.
Position N 39°50' W 075°23'.

Length 33 m.

Type: Tug. MMSI: 367120550.

Date/timePositionNaut miles runAvg speedWind from/ knotsBaromVisibWave heightAir tempDewpointWater temp
2018-Apr-26 15:16N 39°50' W 075°23'0 0.2
2018-Apr-26 15:00N 39°50' W 075°23'2 3.8
2018-Apr-26 14:30N 39°48' W 075°25'4 7.6
2018-Apr-26 14:00N 39°46' W 075°29'4 7.6
2018-Apr-26 13:30N 39°42' W 075°31'4 7.5
2018-Apr-26 13:00N 39°39' W 075°33'3 6.2
2018-Apr-26 12:30N 39°36' W 075°34'3 5.9
2018-Apr-26 12:00N 39°34' W 075°33'1 3.0
2018-Apr-26 11:30N 39°34' W 075°31'1 2.9
2018-Apr-26 11:00N 39°34' W 075°29'0 0.0
2018-Apr-26 10:29N 39°34' W 075°29'0 0.9
2018-Apr-26 10:00N 39°34' W 075°30'3 5.1
2018-Apr-26 09:30N 39°34' W 075°33'5 9.4
2018-Apr-26 09:00N 39°38' W 075°34'611.4
2018-Apr-26 08:30N 39°43' W 075°30'611.5
2018-Apr-26 08:00N 39°48' W 075°26'3 5.6
2018-Apr-26 07:30N 39°50' W 075°23'0 0.0
2018-Apr-25 15:55N 39°50' W 075°23'0 0.1
2018-Apr-25 15:30N 39°50' W 075°23'2 3.7
2018-Apr-25 15:00N 39°51' W 075°21'3 5.8
2018-Apr-25 14:30N 39°51' W 075°17'2 3.4
2018-Apr-25 14:00N 39°51' W 075°15'0 0.0
2018-Apr-25 13:30N 39°51' W 075°15'0 0.2
2018-Apr-25 13:00N 39°51' W 075°15'510.1
2018-Apr-25 12:30N 39°50' W 075°21'1 0.1
2018-Apr-24 18:14N 39°50' W 075°23'0 0.0
2018-Apr-24 16:58N 39°50' W 075°23'0 0.0
2018-Apr-24 16:30N 39°50' W 075°23'0 0.0
2018-Apr-24 16:00N 39°50' W 075°23'0 0.0
2018-Apr-24 15:30N 39°50' W 075°23'0 0.0
2018-Apr-24 15:00N 39°50' W 075°23'0 0.0
2018-Apr-24 14:30N 39°50' W 075°23'0 0.0
2018-Apr-24 14:00N 39°50' W 075°23'0 0.0
2018-Apr-24 13:30N 39°50' W 075°23'0 0.0
2018-Apr-24 13:00N 39°50' W 075°23'0 0.0
2018-Apr-24 12:30N 39°50' W 075°23'0 0.0
2018-Apr-24 11:59N 39°50' W 075°23'1 2.5
2018-Apr-24 11:31N 39°49' W 075°24'1 0.9
2018-Apr-24 10:33N 39°48' W 075°25'0 0.2
2018-Apr-24 10:30N 39°48' W 075°25'1 2.3
2018-Apr-24 10:00N 39°48' W 075°26'2 3.3
2018-Apr-24 09:30N 39°49' W 075°25'2 3.1
2018-Apr-24 09:00N 39°50' W 075°23'0 0.0
2018-Apr-24 08:30N 39°50' W 075°23'0 0.0
2018-Apr-24 08:00N 39°50' W 075°23'0 0.0
2018-Apr-24 07:30N 39°50' W 075°23'0 0.0
2018-Apr-24 07:00N 39°50' W 075°23'0 0.0
2018-Apr-24 06:30N 39°50' W 075°23'0 0.0
2018-Apr-24 06:00N 39°50' W 075°23'0 0.0
2018-Apr-24 05:30N 39°50' W 075°23'0 0.0
2018-Apr-24 04:17N 39°50' W 075°23'0 0.0
2018-Apr-24 03:56N 39°50' W 075°23'0 0.0
2018-Apr-24 03:30N 39°50' W 075°23'0 0.0
2018-Apr-24 03:00N 39°50' W 075°23'0 0.0
2018-Apr-24 02:30N 39°50' W 075°23'1 2.3
2018-Apr-24 02:00N 39°50' W 075°22'0 0.3
2018-Apr-24 01:30N 39°50' W 075°22'1 1.9
2018-Apr-24 01:00N 39°50' W 075°23'0 0.3
2018-Apr-24 00:30N 39°50' W 075°23'0 0.0
2018-Apr-24 00:00N 39°50' W 075°23'0 0.0
2018-Apr-23 23:30N 39°50' W 075°23'0 0.0
2018-Apr-23 23:00N 39°50' W 075°23'0 0.0
2018-Apr-23 22:30N 39°50' W 075°23'0 0.0
2018-Apr-23 22:00N 39°50' W 075°23'0 0.0
2018-Apr-23 21:30N 39°50' W 075°23'0 0.0
2018-Apr-23 21:00N 39°50' W 075°23'0 0.0
2018-Apr-23 20:30N 39°50' W 075°23'4 8.3
2018-Apr-23 20:00N 39°51' W 075°18'510.1
2018-Apr-23 19:30N 39°53' W 075°12'1 1.4
2018-Apr-23 19:01N 39°54' W 075°12'0 0.2
2018-Apr-23 18:31N 39°53' W 075°12'1 1.9
2018-Apr-23 18:00N 39°53' W 075°12'2 4.9
2018-Apr-23 17:30N 39°51' W 075°15'2 4.8
2018-Apr-23 17:00N 39°51' W 075°18'2 3.9
2018-Apr-23 16:30N 39°51' W 075°20'1 1.9
2018-Apr-23 16:00N 39°50' W 075°21'  

Dump ship's entire track history